Terminal Aerodrome Forecast
Issued by NWS Albany, NY

Home | Current Version | Previous Version | Text Only | Print | Product List | Glossary On
Versions: 1 2 3 4 5 6 7 8 9 10 11 12 13 14
000
FTUS41 KALY 272337
TAFALB
TAF
KALB 272337Z 2800/2824 34011KT P6SM VCSH BKN045 OVC060
      TEMPO 2800/2803 6SM -SHRA OVC035
     FM280300 34008KT P6SM VCSH OVC045
     FM280700 34007KT P6SM BKN045
     FM281200 34014G23KT P6SM BKN045
     FM281900 32013G22KT P6SM SCT060=

USA.gov is the U.S. government's official web portal to all federal, state and local government web resources and services.